56TX weather

Public forecast

Using degrees Fahrenheit for public forecast. Weather courtesy of forecast.io.

Closest aviation weather report (METAR) to Anchorage Farm Field

Closest report is Fayette Regional Air Center Airport, 11.6 nm (21.5 km) WSW. Retrieved 2020/08/12 12:15 UTC (0 seconds ago):

K3T5 121215Z AUTO 00000KT 7SM SCT018 26/26 A2996 RMK AO2 T02560256

Closest aviation forecast (TAF) to Anchorage Farm Field

Closest forecast is Easterwood Field, 40.4 nm (74.8 km) NNE. Retrieved 2020/08/12 12:24 UTC (0 seconds ago):

TAF KCLL 121123Z 1212/1312 18004KT P6SM SCT013 FM121400 21009KT P6SM FEW045 FM122300 16009KT P6SM FEW060 FM130600 19009KT P6SM SKC